Time;durP1;ratioP1;P1;durP2;ratioP2;P2;SDS_P1;SDS_P2;PMS_P1;PMS_P2;Temp;Humidity;BMP_temperature;BMP_pressure;BME280_temperature;BME280_humidity;BME280_pressure;Samples;Min_cycle;Max_cycle;Signal;HPM_P1;HPM_P2
2022/10/31 00:01:23;;;;;;;19.87;11.37;;;10.20;99.90;;;;;;6277989;22;20219;-79
2022/10/31 00:03:50;;;;;;;19.63;11.10;;;10.20;99.90;;;;;;6277576;22;20185;-79
2022/10/31 00:06:18;;;;;;;21.30;11.17;;;10.20;99.90;;;;;;6250162;22;20169;-80
2022/10/31 00:08:46;;;;;;;20.53;11.17;;;10.20;99.90;;;;;;6225012;22;20212;-80
2022/10/31 00:11:13;;;;;;;18.03;10.80;;;10.10;99.90;;;;;;6250746;22;20170;-79
2022/10/31 00:13:40;;;;;;;18.20;10.80;;;10.10;99.90;;;;;;6277985;22;20172;-78
2022/10/31 00:16:14;;;;;;;21.67;11.47;;;10.10;99.90;;;;;;6250642;22;20165;-79
2022/10/31 00:18:41;;;;;;;17.73;11.17;;;10.00;99.90;;;;;;6277752;22;20161;-79
2022/10/31 00:21:08;;;;;;;17.00;11.13;;;10.10;99.90;;;;;;6276028;22;20170;-79
2022/10/31 00:23:38;;;;;;;24.10;11.20;;;10.10;99.90;;;;;;6225539;22;20196;-79
2022/10/31 00:26:08;;;;;;;22.10;12.17;;;10.00;99.90;;;;;;6251274;22;20184;-80
2022/10/31 00:28:35;;;;;;;19.43;11.13;;;10.10;99.90;;;;;;6250543;22;20193;-79
2022/10/31 00:31:07;;;;;;;18.97;11.30;;;9.90;99.90;;;;;;6275850;22;20166;-79
2022/10/31 00:33:36;;;;;;;16.63;10.70;;;10.00;99.90;;;;;;6250248;22;20235;-80
2022/10/31 00:36:04;;;;;;;19.87;11.23;;;9.80;99.90;;;;;;6277461;22;20162;-79
2022/10/31 00:38:31;;;;;;;21.17;11.60;;;9.80;99.90;;;;;;6250722;22;20172;-79
2022/10/31 00:40:58;;;;;;;17.93;10.33;;;9.90;99.90;;;;;;6275962;22;20169;-79
2022/10/31 00:43:25;;;;;;;19.10;10.90;;;9.90;99.90;;;;;;6239611;23;20212;-80
2022/10/31 00:45:52;;;;;;;18.10;11.27;;;9.90;99.90;;;;;;6245366;23;20178;-80
2022/10/31 00:48:19;;;;;;;15.63;9.27;;;10.00;99.90;;;;;;6220148;23;20170;-79
2022/10/31 00:50:55;;;;;;;17.90;10.93;;;9.80;99.90;;;;;;6246900;23;20166;-79
2022/10/31 00:53:22;;;;;;;21.27;11.00;;;9.80;99.90;;;;;;6245736;23;20189;-81
2022/10/31 00:55:49;;;;;;;18.57;10.43;;;9.70;99.90;;;;;;6244950;23;20174;-78
2022/10/31 00:58:16;;;;;;;18.70;11.57;;;9.70;99.90;;;;;;6219566;23;20216;-78
2022/10/31 01:00:47;;;;;;;16.67;10.43;;;9.60;99.90;;;;;;6220387;23;20588;-79
2022/10/31 01:03:17;;;;;;;19.80;11.13;;;9.60;99.90;;;;;;6219897;23;20186;-79
2022/10/31 01:05:44;;;;;;;17.47;11.10;;;9.50;99.90;;;;;;6219272;23;20166;-78
2022/10/31 01:08:11;;;;;;;19.70;10.70;;;9.70;99.90;;;;;;6219543;23;20618;-78
2022/10/31 01:10:38;;;;;;;17.53;10.60;;;9.60;99.90;;;;;;6219657;23;20188;-80
2022/10/31 01:13:04;;;;;;;18.20;11.23;;;9.60;99.90;;;;;;6246414;23;20204;-80
2022/10/31 01:15:31;;;;;;;17.53;10.80;;;9.60;99.90;;;;;;6219889;23;20224;-79
2022/10/31 01:17:58;;;;;;;16.07;10.50;;;9.50;99.90;;;;;;6215903;22;20201;-80
2022/10/31 01:20:33;;;;;;;19.50;10.80;;;9.50;99.90;;;;;;6250338;22;20542;-80
2022/10/31 01:22:59;;;;;;;21.47;11.80;;;9.50;99.90;;;;;;6249928;22;20275;-80
2022/10/31 01:25:29;;;;;;;18.77;11.40;;;9.40;99.90;;;;;;6225647;23;20527;-81
2022/10/31 01:27:56;;;;;;;20.00;11.33;;;9.30;99.90;;;;;;6246428;23;20178;-80
2022/10/31 01:30:26;;;;;;;20.70;11.70;;;9.30;99.90;;;;;;6220749;23;20170;-80
2022/10/31 01:32:53;;;;;;;19.00;11.50;;;9.30;99.90;;;;;;6219889;23;20170;-80
2022/10/31 01:35:28;;;;;;;18.20;10.70;;;9.30;99.90;;;;;;6245264;23;20166;-80
2022/10/31 01:37:55;;;;;;;20.13;11.93;;;9.30;99.90;;;;;;6220122;23;20212;-81
2022/10/31 01:40:22;;;;;;;21.70;12.37;;;9.30;99.90;;;;;;6245142;23;20603;-80
2022/10/31 01:42:49;;;;;;;22.47;12.50;;;9.30;99.90;;;;;;6235561;22;20263;-80
2022/10/31 01:45:17;;;;;;;19.20;11.83;;;9.30;99.90;;;;;;6153157;23;20262;-80
2022/10/31 01:47:48;;;;;;;20.30;12.50;;;9.30;99.90;;;;;;6153814;23;20252;-81
2022/10/31 01:50:31;;;;;;;21.50;12.30;;;9.30;99.90;;;;;;6154154;23;20172;-81
2022/10/31 01:53:00;;;;;;;20.70;12.20;;;9.40;99.90;;;;;;6129183;23;20547;-80
2022/10/31 01:55:32;;;;;;;20.10;11.77;;;9.40;99.90;;;;;;6152979;23;20179;-80
2022/10/31 01:58:06;;;;;;;20.07;12.57;;;9.40;99.90;;;;;;6153804;23;20179;-80
2022/10/31 02:00:33;;;;;;;19.77;12.50;;;9.40;99.90;;;;;;6128370;23;20176;-81
2022/10/31 02:03:00;;;;;;;23.07;13.50;;;9.30;99.90;;;;;;6194160;22;20190;-80
2022/10/31 02:05:30;;;;;;;20.47;12.37;;;9.30;99.90;;;;;;6249661;22;20165;-81
2022/10/31 02:08:02;;;;;;;21.07;11.97;;;9.30;99.90;;;;;;6249536;22;20497;-81
2022/10/31 02:10:32;;;;;;;24.87;13.60;;;9.30;99.90;;;;;;6249882;22;20173;-81
2022/10/31 02:13:02;;;;;;;23.50;14.10;;;9.30;99.90;;;;;;6275538;22;20184;-81
2022/10/31 02:15:31;;;;;;;20.63;13.87;;;9.20;99.90;;;;;;6277277;22;20166;-83
2022/10/31 02:17:59;;;;;;;24.20;14.37;;;9.20;99.90;;;;;;6251000;22;20165;-81
2022/10/31 02:20:39;;;;;;;22.67;13.70;;;9.10;99.90;;;;;;6275666;22;20196;-82
2022/10/31 02:23:47;;;;;;;23.53;14.10;;;9.10;99.90;;;;;;6275588;22;20193;-80
2022/10/31 02:26:31;;;;;;;24.30;14.83;;;9.00;99.90;;;;;;6213204;23;20198;-80
2022/10/31 02:29:24;;;;;;;27.30;15.63;;;9.00;99.90;;;;;;6187959;23;20542;-80
2022/10/31 02:31:55;;;;;;;23.63;14.40;;;8.90;99.90;;;;;;6213194;23;20220;-82
2022/10/31 02:34:38;;;;;;;24.70;15.50;;;8.90;99.90;;;;;;6213410;23;20631;-82
2022/10/31 02:37:25;;;;;;;27.20;16.83;;;8.90;99.90;;;;;;6188145;23;20171;-82
2022/10/31 02:40:13;;;;;;;26.67;16.03;;;8.90;99.90;;;;;;6188392;23;20518;-84
2022/10/31 02:45:14;;;;;;;30.53;16.17;;;8.80;99.90;;;;;;6274712;22;20219;-82
2022/10/31 02:47:42;;;;;;;31.20;16.93;;;8.80;99.90;;;;;;6249241;22;20203;-82
2022/10/31 02:50:16;;;;;;;28.43;16.53;;;8.80;99.90;;;;;;6275281;22;20252;-81
2022/10/31 02:52:42;;;;;;;27.93;16.73;;;8.80;99.90;;;;;;6276779;22;20507;-83
2022/10/31 02:55:26;;;;;;;28.53;16.97;;;8.80;99.90;;;;;;6250541;22;20173;-81
2022/10/31 02:58:20;;;;;;;26.63;16.50;;;8.70;99.90;;;;;;6277604;22;20176;-80
2022/10/31 03:01:05;;;;;;;27.93;16.63;;;8.80;99.90;;;;;;6240823;22;20206;-81
2022/10/31 03:03:44;;;;;;;27.07;16.93;;;8.80;99.90;;;;;;6220556;23;20297;-83
2022/10/31 03:06:23;;;;;;;25.33;16.37;;;8.80;99.90;;;;;;6221097;23;20666;-82
2022/10/31 03:09:03;;;;;;;28.40;17.83;;;8.70;99.90;;;;;;6246542;23;20452;-82
2022/10/31 03:11:38;;;;;;;29.10;17.17;;;8.70;99.90;;;;;;6220967;23;20261;-80
2022/10/31 03:14:12;;;;;;;27.97;17.97;;;8.70;99.90;;;;;;6220574;23;20174;-80
2022/10/31 03:17:06;;;;;;;28.77;17.37;;;8.60;99.90;;;;;;6246116;23;20170;-80
2022/10/31 03:19:39;;;;;;;29.57;17.70;;;8.60;99.90;;;;;;6219344;23;20178;-81
2022/10/31 03:22:37;;;;;;;32.13;18.87;;;8.60;99.90;;;;;;6220775;23;20177;-81
2022/10/31 03:25:06;;;;;;;32.03;19.07;;;8.60;99.90;;;;;;6189261;23;20195;-82
2022/10/31 03:27:36;;;;;;;33.97;20.10;;;8.50;99.90;;;;;;6189372;23;20182;-82
2022/10/31 03:30:05;;;;;;;31.60;19.43;;;8.40;99.90;;;;;;6189466;23;20199;-81
2022/10/31 03:32:37;;;;;;;33.87;19.73;;;8.40;99.90;;;;;;6189196;23;20643;-81
2022/10/31 03:35:07;;;;;;;32.37;20.40;;;8.40;99.90;;;;;;6189660;23;20229;-82
2022/10/31 03:37:36;;;;;;;30.97;18.83;;;8.30;99.90;;;;;;6189382;23;20171;-82
2022/10/31 03:40:06;;;;;;;32.27;20.57;;;8.30;99.90;;;;;;6189724;23;20174;-81
2022/10/31 03:42:38;;;;;;;36.33;20.83;;;8.30;99.90;;;;;;6189344;23;20174;-80
2022/10/31 03:45:10;;;;;;;36.03;21.27;;;8.40;99.90;;;;;;6189089;23;20679;-81
2022/10/31 03:47:38;;;;;;;33.87;20.83;;;8.30;99.90;;;;;;6189242;23;20171;-81
2022/10/31 03:50:07;;;;;;;34.30;21.23;;;8.30;99.90;;;;;;6214575;23;20482;-80
2022/10/31 03:52:57;;;;;;;35.70;20.87;;;8.30;99.90;;;;;;6189254;23;20173;-81
2022/10/31 03:55:36;;;;;;;35.83;21.73;;;8.30;99.90;;;;;;6188992;23;20615;-81
2022/10/31 03:58:08;;;;;;;37.70;20.83;;;8.20;99.90;;;;;;6189402;23;20177;-81
2022/10/31 04:00:40;;;;;;;33.80;20.63;;;8.20;99.90;;;;;;6192681;23;20297;-82
2022/10/31 04:03:10;;;;;;;37.10;20.20;;;8.20;99.90;;;;;;6219632;23;20186;-81
2022/10/31 04:05:40;;;;;;;34.57;20.53;;;8.30;99.90;;;;;;6245749;23;20174;-82
2022/10/31 04:08:12;;;;;;;37.10;21.20;;;8.30;99.90;;;;;;6247425;23;20169;-82
2022/10/31 04:10:41;;;;;;;39.27;22.20;;;8.30;99.90;;;;;;6221223;23;20174;-82
2022/10/31 04:13:12;;;;;;;37.03;21.33;;;8.40;99.90;;;;;;6246250;23;20173;-82
2022/10/31 04:15:42;;;;;;;37.17;21.30;;;8.40;99.90;;;;;;6220704;23;20181;-82
2022/10/31 04:18:09;;;;;;;35.60;21.17;;;8.40;99.90;;;;;;6220461;23;20602;-81
2022/10/31 04:20:38;;;;;;;35.70;20.17;;;8.40;99.90;;;;;;6221776;23;20173;-81
2022/10/31 04:23:21;;;;;;;36.87;21.03;;;8.40;99.90;;;;;;6248918;23;20497;-82
2022/10/31 04:25:58;;;;;;;37.40;21.73;;;8.20;99.90;;;;;;6241336;22;20205;-81
2022/10/31 04:32:10;;;;;;;34.50;20.23;;;8.10;99.90;;;;;;6306143;22;20195;-80
2022/10/31 04:34:38;;;;;;;34.47;21.77;;;8.10;99.90;;;;;;6281119;22;20169;-80
2022/10/31 04:37:05;;;;;;;33.57;20.57;;;8.10;99.90;;;;;;6308297;22;20179;-81
2022/10/31 04:39:35;;;;;;;36.27;21.20;;;8.10;99.90;;;;;;6281315;22;20175;-82
2022/10/31 04:42:08;;;;;;;35.00;21.07;;;8.00;99.90;;;;;;6276310;22;20198;-82
2022/10/31 04:44:35;;;;;;;34.03;20.93;;;8.00;99.90;;;;;;6275891;22;20204;-80
2022/10/31 04:47:16;;;;;;;33.63;20.40;;;8.00;99.90;;;;;;6226276;22;20208;-82
2022/10/31 04:49:43;;;;;;;31.40;19.90;;;8.00;99.90;;;;;;6226045;22;20180;-81
2022/10/31 04:52:10;;;;;;;33.53;20.07;;;7.90;99.90;;;;;;6225055;22;20230;-84
2022/10/31 04:54:37;;;;;;;32.47;20.30;;;7.80;99.90;;;;;;6250875;22;20177;-82
2022/10/31 04:57:04;;;;;;;37.63;21.13;;;7.90;99.90;;;;;;6250132;22;20624;-81
2022/10/31 04:59:31;;;;;;;33.10;20.40;;;7.90;99.90;;;;;;6252428;22;20179;-81
2022/10/31 05:01:58;;;;;;;34.07;20.30;;;8.00;99.90;;;;;;6226212;22;20177;-83
2022/10/31 05:04:25;;;;;;;33.43;20.53;;;8.00;99.90;;;;;;6277125;22;20188;-84
2022/10/31 05:06:52;;;;;;;35.30;21.03;;;7.90;99.90;;;;;;6225647;22;20633;-81
2022/10/31 05:09:19;;;;;;;34.87;20.87;;;7.90;99.90;;;;;;6250018;22;20172;-80
2022/10/31 05:11:46;;;;;;;34.47;20.33;;;7.80;99.90;;;;;;6250347;22;20172;-80
2022/10/31 05:14:13;;;;;;;34.87;20.93;;;7.70;99.90;;;;;;6250367;22;20173;-81
2022/10/31 05:16:40;;;;;;;34.73;21.43;;;7.70;99.90;;;;;;6276591;22;20614;-81
2022/10/31 05:19:07;;;;;;;32.70;19.70;;;7.60;99.90;;;;;;6275856;22;20176;-83
2022/10/31 05:21:34;;;;;;;36.40;20.70;;;7.60;99.90;;;;;;6250886;22;20161;-81
2022/10/31 05:24:01;;;;;;;40.43;21.47;;;7.50;99.90;;;;;;6277550;22;20187;-81
2022/10/31 05:26:28;;;;;;;33.23;20.23;;;7.50;99.90;;;;;;6250037;22;20168;-82
2022/10/31 05:31:48;;;;;;;31.93;19.40;;;7.40;99.90;;;;;;6276564;22;20231;-81
2022/10/31 05:34:31;;;;;;;33.27;19.47;;;7.50;99.90;;;;;;6197927;22;20269;-81
2022/10/31 05:38:05;;;;;;;;;;;;;;;;;;;;;
2022/10/31 05:41:14;;;;;;;31.20;19.37;;;7.50;99.90;;;;;;6248347;22;20166;-81
2022/10/31 05:44:00;;;;;;;34.17;19.80;;;7.40;99.90;;;;;;6269532;22;20186;-81
2022/10/31 05:46:55;;;;;;;31.77;19.30;;;7.40;99.90;;;;;;6227570;22;20289;-82
2022/10/31 05:49:55;;;;;;;32.23;18.63;;;7.30;99.90;;;;;;6184551;23;20219;-80
2022/10/31 05:52:25;;;;;;;33.87;20.00;;;7.30;99.90;;;;;;6212687;22;20188;-80
2022/10/31 05:54:54;;;;;;;32.20;19.13;;;7.40;99.90;;;;;;6239572;23;20325;-82
2022/10/31 05:57:35;;;;;;;31.43;18.80;;;7.30;99.90;;;;;;6216599;23;20185;-82
2022/10/31 06:00:21;;;;;;;32.20;19.00;;;7.30;99.90;;;;;;6169933;23;20197;-84
2022/10/31 06:03:15;;;;;;;31.10;19.17;;;7.20;99.90;;;;;;6214139;23;20173;-82
2022/10/31 06:05:45;;;;;;;32.63;20.17;;;7.20;99.90;;;;;;6215828;23;20198;-80
2022/10/31 06:08:22;;;;;;;40.10;22.03;;;7.20;99.90;;;;;;6215572;23;20633;-81
2022/10/31 06:10:49;;;;;;;41.03;22.53;;;7.20;99.90;;;;;;6240013;23;20171;-80
2022/10/31 06:13:16;;;;;;;41.80;22.43;;;7.10;99.90;;;;;;6239646;23;20182;-81
2022/10/31 06:15:44;;;;;;;44.63;24.17;;;7.20;99.90;;;;;;6214000;23;20181;-81
2022/10/31 06:18:11;;;;;;;40.30;23.47;;;7.20;99.90;;;;;;6216249;23;20237;-80
2022/10/31 06:20:38;;;;;;;44.13;24.40;;;7.20;99.90;;;;;;6214228;23;20258;-80
2022/10/31 06:23:08;;;;;;;40.70;23.83;;;7.20;99.90;;;;;;6239797;23;20624;-82
2022/10/31 06:25:35;;;;;;;44.20;23.97;;;7.20;99.90;;;;;;6239243;23;20197;-79
2022/10/31 06:28:02;;;;;;;39.60;23.90;;;7.20;99.90;;;;;;6214465;23;20168;-79
2022/10/31 06:30:32;;;;;;;43.93;24.27;;;7.40;99.90;;;;;;6216504;23;20168;-80
2022/10/31 06:33:19;;;;;;;44.13;23.90;;;7.40;99.90;;;;;;6215403;23;20177;-79
2022/10/31 06:39:17;;;;;;;47.00;23.33;;;7.60;99.90;;;;;;6130855;23;20163;-81
2022/10/31 06:41:47;;;;;;;44.83;23.57;;;7.70;99.90;;;;;;6130456;23;20562;-84
2022/10/31 06:44:46;;;;;;;40.40;22.30;;;7.70;99.90;;;;;;6128660;23;20243;-80
2022/10/31 06:47:13;;;;;;;44.60;22.67;;;7.80;99.90;;;;;;6130736;23;20259;-80
2022/10/31 06:49:47;;;;;;;43.23;22.80;;;7.90;99.90;;;;;;6155457;23;20175;-82
2022/10/31 06:52:18;;;;;;;41.93;22.57;;;7.90;99.90;;;;;;6130696;23;20207;-78
2022/10/31 06:54:45;;;;;;;50.40;23.20;;;8.00;99.90;;;;;;6183828;23;20611;-80
2022/10/31 06:57:22;;;;;;;44.17;21.93;;;8.00;99.90;;;;;;6185362;23;20582;-81
2022/10/31 07:00:01;;;;;;;44.93;23.07;;;8.20;99.90;;;;;;6160036;23;20225;-81
2022/10/31 07:02:37;;;;;;;42.53;22.37;;;8.30;99.90;;;;;;6185127;23;20295;-80
2022/10/31 07:05:07;;;;;;;40.93;22.10;;;8.40;99.90;;;;;;6184487;23;20569;-81
2022/10/31 07:07:34;;;;;;;40.23;21.57;;;8.40;99.90;;;;;;6185690;23;20181;-82
2022/10/31 07:10:01;;;;;;;40.07;20.80;;;8.50;99.90;;;;;;6184574;23;20179;-79
2022/10/31 07:12:31;;;;;;;43.53;21.77;;;8.70;99.90;;;;;;6185235;23;20255;-80
2022/10/31 07:15:26;;;;;;;38.30;20.33;;;8.80;99.90;;;;;;6190809;23;20201;-79
2022/10/31 07:17:53;;;;;;;41.13;20.93;;;8.90;99.90;;;;;;6208782;23;20544;-83
2022/10/31 07:20:43;;;;;;;45.13;20.50;;;8.90;99.90;;;;;;6241843;23;20159;-82
2022/10/31 07:23:20;;;;;;;35.97;20.20;;;9.00;99.90;;;;;;6242556;23;20557;-88
2022/10/31 07:25:59;;;;;;;32.90;20.03;;;9.20;99.90;;;;;;6240719;23;20195;-81
2022/10/31 07:28:27;;;;;;;32.20;19.37;;;9.30;99.90;;;;;;6216032;23;20185;-84
2022/10/31 07:31:12;;;;;;;32.60;20.37;;;9.40;99.90;;;;;;6216044;23;20246;-84
2022/10/31 07:33:45;;;;;;;33.23;18.90;;;9.40;99.90;;;;;;6240793;23;20206;-80
2022/10/31 07:36:32;;;;;;;31.47;17.73;;;9.60;99.90;;;;;;6216281;23;20167;-82
2022/10/31 07:39:10;;;;;;;29.83;17.77;;;9.60;99.90;;;;;;6216800;23;20170;-81
2022/10/31 07:41:40;;;;;;;31.83;18.33;;;9.70;99.90;;;;;;6216575;23;20168;-80
2022/10/31 07:44:12;;;;;;;33.50;19.07;;;9.70;99.90;;;;;;6240079;23;20569;-80
2022/10/31 07:47:40;;;;;;;28.77;18.53;;;9.60;99.90;;;;;;6261266;22;20206;-83
2022/10/31 07:50:17;;;;;;;29.27;18.40;;;9.70;99.90;;;;;;6213799;23;20171;-83
2022/10/31 07:53:41;;;;;;;37.33;19.93;;;9.70;99.90;;;;;;6084601;23;20177;-80
2022/10/31 07:57:13;;;;;;;37.73;20.40;;;9.90;99.90;;;;;;6182119;22;20267;-83
2022/10/31 07:59:51;;;;;;;31.67;19.00;;;9.70;99.90;;;;;;6189400;23;20175;-81
2022/10/31 08:02:20;;;;;;;29.80;18.63;;;9.70;99.90;;;;;;6214269;23;20189;-80
2022/10/31 08:04:50;;;;;;;29.43;17.90;;;9.90;99.90;;;;;;6214289;23;20201;-79
2022/10/31 08:07:18;;;;;;;27.07;17.53;;;10.00;99.90;;;;;;6189334;23;20186;-79
2022/10/31 08:09:47;;;;;;;31.67;18.17;;;10.00;99.90;;;;;;6213713;23;20330;-77
2022/10/31 08:12:15;;;;;;;31.53;16.57;;;10.00;99.90;;;;;;6214244;23;20602;-81
2022/10/31 08:14:44;;;;;;;31.07;17.80;;;10.20;99.90;;;;;;6213819;23;20171;-82
2022/10/31 08:17:11;;;;;;;28.00;16.90;;;10.20;99.90;;;;;;6214608;23;20206;-80
2022/10/31 08:19:37;;;;;;;26.67;16.07;;;10.30;99.90;;;;;;6214263;23;20248;-79
2022/10/31 08:22:12;;;;;;;24.80;15.83;;;10.50;99.90;;;;;;6189544;23;20186;-82
2022/10/31 08:24:57;;;;;;;24.20;14.60;;;10.60;99.90;;;;;;6214104;23;20273;-82
2022/10/31 08:27:31;;;;;;;23.90;13.80;;;10.70;99.90;;;;;;6165327;23;20257;-80
2022/10/31 08:29:58;;;;;;;22.97;13.43;;;10.80;99.90;;;;;;6214227;23;20178;-82
2022/10/31 08:32:28;;;;;;;21.13;13.23;;;11.10;99.90;;;;;;6214356;23;20249;-81
2022/10/31 08:34:58;;;;;;;24.27;13.53;;;11.30;99.90;;;;;;6164493;23;20248;-82
2022/10/31 08:37:25;;;;;;;22.30;13.03;;;11.50;99.90;;;;;;6273310;22;20465;-82
2022/10/31 08:39:58;;;;;;;23.07;13.67;;;11.70;99.90;;;;;;6250700;22;20158;-80
2022/10/31 08:42:25;;;;;;;23.43;14.00;;;11.70;99.90;;;;;;6278267;22;20252;-84
2022/10/31 08:44:52;;;;;;;23.37;13.60;;;11.80;99.90;;;;;;6275830;22;20631;-79
2022/10/31 08:47:19;;;;;;;23.03;13.37;;;11.80;99.90;;;;;;6250947;22;20250;-82
2022/10/31 08:49:46;;;;;;;22.27;13.50;;;11.90;99.90;;;;;;6276019;22;20177;-81
2022/10/31 08:52:14;;;;;;;23.37;13.20;;;12.00;99.90;;;;;;6250533;22;20165;-78
2022/10/31 08:54:42;;;;;;;21.07;13.13;;;12.00;99.90;;;;;;6249917;22;20173;-82
2022/10/31 08:57:19;;;;;;;22.00;13.33;;;12.10;99.90;;;;;;6271058;22;20228;-78
2022/10/31 08:59:55;;;;;;;22.77;13.60;;;12.20;99.90;;;;;;6245765;22;20170;-80
2022/10/31 09:02:35;;;;;;;22.53;13.57;;;12.20;99.90;;;;;;6245878;23;20549;-79
2022/10/31 09:05:05;;;;;;;25.50;14.03;;;12.50;99.90;;;;;;6246452;23;20631;-79
2022/10/31 09:07:32;;;;;;;23.77;13.50;;;13.00;99.90;;;;;;6244682;23;20194;-79
2022/10/31 09:09:59;;;;;;;24.27;13.43;;;13.30;99.90;;;;;;6245355;23;20181;-80
2022/10/31 09:12:26;;;;;;;20.90;13.13;;;13.60;99.90;;;;;;6246542;23;20505;-80
2022/10/31 09:14:53;;;;;;;38.30;14.83;;;13.90;99.90;;;;;;6269987;22;20169;-81
2022/10/31 09:17:19;;;;;;;24.73;13.47;;;14.30;99.90;;;;;;6244821;23;20171;-81
2022/10/31 09:19:46;;;;;;;21.50;13.63;;;14.60;99.90;;;;;;6244507;23;20167;-82
2022/10/31 09:22:14;;;;;;;22.53;14.10;;;14.70;99.90;;;;;;6246332;23;20168;-81
2022/10/31 09:24:40;;;;;;;21.27;13.83;;;14.80;99.90;;;;;;6244958;23;20175;-81
2022/10/31 09:27:08;;;;;;;24.20;14.83;;;15.00;99.90;;;;;;6245040;23;20172;-81
2022/10/31 09:29:35;;;;;;;22.80;14.23;;;15.30;99.90;;;;;;6246713;23;20223;-84
2022/10/31 09:32:02;;;;;;;21.97;14.40;;;15.50;99.90;;;;;;6244986;23;20171;-81
2022/10/31 09:34:38;;;;;;;22.43;14.37;;;15.80;99.90;;;;;;6244339;23;20173;-81
2022/10/31 09:37:05;;;;;;;21.50;14.50;;;16.00;99.90;;;;;;6244454;23;20661;-80
2022/10/31 09:39:32;;;;;;;23.40;15.97;;;16.30;99.90;;;;;;6269833;22;20164;-79
2022/10/31 09:42:05;;;;;;;24.30;15.07;;;16.50;99.90;;;;;;6219786;23;20185;-79
2022/10/31 09:44:37;;;;;;;26.00;15.23;;;16.60;99.90;;;;;;6244085;23;20173;-81
2022/10/31 09:47:22;;;;;;;22.43;15.37;;;16.80;99.90;;;;;;6243991;22;20189;-80
2022/10/31 09:50:22;;;;;;;20.93;14.43;;;17.00;99.90;;;;;;6244488;23;20190;-81
2022/10/31 09:53:40;;;;;;;21.37;14.27;;;17.20;99.90;;;;;;6244100;23;20170;-80
2022/10/31 09:56:16;;;;;;;21.57;14.10;;;17.10;99.90;;;;;;6192545;23;20555;-80
2022/10/31 09:58:46;;;;;;;22.00;13.63;;;17.60;99.90;;;;;;6218288;23;20630;-78
2022/10/31 10:01:40;;;;;;;21.30;13.00;;;17.80;99.90;;;;;;6217848;23;20174;-80
2022/10/31 10:04:24;;;;;;;20.67;13.73;;;18.30;99.90;;;;;;6192546;23;20243;-79
2022/10/31 10:06:52;;;;;;;24.27;13.47;;;18.50;99.90;;;;;;6218014;23;20201;-79
2022/10/31 10:09:25;;;;;;;18.93;13.17;;;18.90;99.90;;;;;;6193473;23;20181;-79
2022/10/31 10:12:08;;;;;;;18.63;12.47;;;19.20;99.90;;;;;;6243694;23;20258;-81
2022/10/31 10:14:38;;;;;;;17.43;12.30;;;19.40;99.90;;;;;;6218227;23;20253;-81
2022/10/31 10:17:48;;;;;;;17.27;12.20;;;19.60;99.90;;;;;;6243633;23;20170;-81
2022/10/31 10:20:19;;;;;;;41.97;14.53;;;19.80;99.90;;;;;;6153342;23;20172;-80
2022/10/31 10:22:54;;;;;;;27.90;13.47;;;20.10;99.90;;;;;;6153380;23;20497;-81
2022/10/31 10:25:40;;;;;;;18.03;12.70;;;20.30;99.90;;;;;;6153082;23;20196;-79
2022/10/31 10:28:27;;;;;;;19.40;12.77;;;20.60;99.90;;;;;;6153175;23;20194;-81
2022/10/31 10:31:05;;;;;;;18.63;11.57;;;20.70;99.90;;;;;;6153061;23;20173;-83
2022/10/31 10:33:46;;;;;;;16.70;11.83;;;20.70;99.90;;;;;;6128598;23;20265;-83
2022/10/31 10:36:24;;;;;;;16.40;11.30;;;20.90;99.90;;;;;;6128462;23;20172;-83
2022/10/31 10:38:52;;;;;;;17.40;11.80;;;20.90;99.90;;;;;;6152686;23;20180;-83
2022/10/31 10:41:23;;;;;;;18.83;11.77;;;21.20;99.90;;;;;;6153353;23;20669;-83
2022/10/31 10:43:51;;;;;;;15.90;11.20;;;21.40;99.90;;;;;;6128810;23;20183;-81
2022/10/31 10:49:49;;;;;;;18.23;10.93;;;21.30;99.90;;;;;;6128007;23;20176;-81
2022/10/31 10:52:52;;;;;;;18.43;11.63;;;21.30;99.90;;;;;;6153064;23;20275;-80
2022/10/31 10:55:25;;;;;;;17.03;10.73;;;21.60;99.90;;;;;;6128512;23;20183;-80
2022/10/31 10:58:05;;;;;;;17.07;11.80;;;21.60;99.90;;;;;;6220688;23;20167;-81
2022/10/31 11:00:49;;;;;;;15.33;10.97;;;21.40;99.90;;;;;;6270278;22;20167;-80
2022/10/31 11:03:18;;;;;;;18.90;11.83;;;21.50;99.90;;;;;;6244165;23;20173;-80
2022/10/31 11:05:53;;;;;;;19.23;11.83;;;21.30;99.90;;;;;;6245537;23;20186;-80
2022/10/31 11:08:27;;;;;;;17.67;11.80;;;21.10;99.90;;;;;;6243967;23;20657;-78
2022/10/31 11:11:13;;;;;;;18.30;11.77;;;21.00;99.90;;;;;;6243847;23;20173;-80
2022/10/31 11:13:42;;;;;;;15.57;11.23;;;21.00;99.90;;;;;;6244016;23;20170;-81
2022/10/31 11:16:13;;;;;;;18.83;11.37;;;20.80;99.90;;;;;;6245139;23;20181;-79
2022/10/31 11:18:46;;;;;;;16.33;11.63;;;20.70;99.90;;;;;;6247913;23;20178;-80
2022/10/31 11:21:26;;;;;;;19.03;12.00;;;20.90;99.90;;;;;;6246204;23;20170;-83
2022/10/31 11:24:31;;;;;;;19.90;11.00;;;21.30;99.90;;;;;;6247325;23;20198;-83
2022/10/31 11:27:30;;;;;;;21.60;12.73;;;21.60;99.90;;;;;;6247458;23;20190;-83
2022/10/31 11:31:13;;;;;;;21.60;12.10;;;22.20;99.90;;;;;;6225076;22;20590;-82
2022/10/31 11:35:23;;;;;;;22.17;13.47;;;22.60;99.90;;;;;;6096108;23;20208;-83
2022/10/31 11:42:52;;;;;;;21.53;12.67;;;23.50;99.90;;;;;;5954729;24;20164;-85
2022/10/31 11:58:41;;;;;;;22.10;13.52;;;25.60;99.90;;;;;;6272903;22;20206;-85
2022/10/31 12:13:07;;;;;;;19.50;12.90;;;26.50;99.90;;;;;;6237126;22;20210;-83
2022/10/31 12:15:45;;;;;;;21.42;12.82;;;26.10;99.90;;;;;;6246102;23;20180;-83
2022/10/31 12:18:27;;;;;;;17.73;12.07;;;26.20;99.90;;;;;;6221058;23;20199;-84
2022/10/31 12:21:26;;;;;;;20.02;11.45;;;26.00;99.90;;;;;;6245286;23;20254;-83
2022/10/31 12:24:08;;;;;;;17.70;11.70;;;26.10;99.90;;;;;;6220198;23;20592;-83
2022/10/31 12:27:01;;;;;;;21.65;13.18;;;26.20;99.90;;;;;;6218675;23;20202;-82
2022/10/31 12:29:50;;;;;;;19.17;13.27;;;26.50;99.90;;;;;;6245186;23;20186;-84
2022/10/31 12:33:07;;;;;;;19.58;12.77;;;26.10;99.90;;;;;;6212420;23;20192;-83
2022/10/31 12:36:04;;;;;;;19.85;12.57;;;25.80;99.90;;;;;;6219141;23;20249;-82
2022/10/31 12:38:35;;;;;;;19.90;12.88;;;25.80;99.90;;;;;;6219614;23;20196;-82
2022/10/31 12:41:27;;;;;;;18.80;12.35;;;25.50;99.90;;;;;;6219563;23;20197;-83
2022/10/31 12:44:31;;;;;;;17.80;12.13;;;25.10;99.90;;;;;;6219786;23;20177;-83
2022/10/31 12:47:36;;;;;;;20.90;12.57;;;25.00;99.90;;;;;;6246266;22;20522;-83
2022/10/31 12:50:19;;;;;;;21.50;12.77;;;24.50;99.90;;;;;;6212914;23;20212;-83
2022/10/31 12:53:23;;;;;;;18.50;12.30;;;24.40;99.90;;;;;;6189639;23;20194;-84
2022/10/31 12:56:15;;;;;;;20.92;12.52;;;24.30;99.90;;;;;;6189579;23;20174;-83
2022/10/31 12:59:02;;;;;;;17.95;12.45;;;23.60;99.90;;;;;;6189553;23;20183;-82
2022/10/31 13:01:47;;;;;;;18.08;12.43;;;23.50;99.90;;;;;;6215965;23;20155;-82
2022/10/31 13:04:21;;;;;;;17.33;11.87;;;23.20;99.90;;;;;;6190519;23;20163;-82
2022/10/31 13:06:52;;;;;;;18.73;12.23;;;22.90;99.90;;;;;;6214475;23;20512;-81
2022/10/31 13:09:27;;;;;;;18.23;12.13;;;22.60;99.90;;;;;;6189289;23;20202;-82
2022/10/31 13:11:59;;;;;;;18.50;12.53;;;22.10;99.90;;;;;;6214499;23;20163;-82
2022/10/31 13:14:36;;;;;;;21.47;12.30;;;22.00;99.90;;;;;;6215808;23;20684;-82
2022/10/31 13:17:34;;;;;;;16.70;11.73;;;21.60;99.90;;;;;;6189210;23;20170;-83
2022/10/31 13:20:37;;;;;;;18.43;11.47;;;21.30;99.90;;;;;;6214192;23;20538;-83
2022/10/31 13:23:43;;;;;;;19.37;12.07;;;21.10;99.90;;;;;;6188635;23;20236;-79
2022/10/31 13:27:01;;;;;;;18.20;11.50;;;21.00;99.90;;;;;;6092675;23;20218;-80
2022/10/31 13:30:25;;;;;;;21.03;11.33;;;20.70;99.90;;;;;;6123352;23;20203;-79
2022/10/31 13:33:01;;;;;;;18.73;11.67;;;20.20;99.90;;;;;;6128844;23;20175;-81
2022/10/31 13:35:46;;;;;;;16.70;11.43;;;19.70;99.90;;;;;;6128184;23;20227;-79
2022/10/31 13:38:40;;;;;;;17.50;11.37;;;19.50;99.90;;;;;;6152808;23;20183;-80
2022/10/31 13:41:26;;;;;;;18.17;10.93;;;19.30;99.90;;;;;;6153001;23;20180;-80
2022/10/31 13:44:01;;;;;;;17.70;11.73;;;19.30;99.90;;;;;;6129068;23;20168;-80
2022/10/31 13:46:54;;;;;;;19.10;11.67;;;19.10;99.90;;;;;;6128297;23;20199;-82
2022/10/31 13:49:33;;;;;;;20.60;12.17;;;19.20;99.90;;;;;;6099300;23;20292;-81
2022/10/31 13:52:12;;;;;;;27.53;15.40;;;19.20;99.90;;;;;;6099633;23;20235;-82
2022/10/31 13:54:42;;;;;;;25.60;15.30;;;19.00;99.90;;;;;;6099581;23;20268;-81
2022/10/31 13:57:32;;;;;;;27.77;14.97;;;18.80;99.90;;;;;;6124327;23;20176;-81
2022/10/31 14:00:06;;;;;;;26.60;15.73;;;18.70;99.90;;;;;;6150525;23;20190;-80
2022/10/31 14:02:35;;;;;;;26.10;15.17;;;18.10;99.90;;;;;;6159113;23;20171;-81
2022/10/31 14:05:21;;;;;;;25.83;14.67;;;17.80;99.90;;;;;;6159924;23;20176;-82
2022/10/31 14:07:49;;;;;;;26.40;15.70;;;17.70;99.90;;;;;;6159769;23;20178;-80